Wetterdaten: Woche 01.05.06 - 07.05.06 (KW18)
Datum Zeit Temperatur Luftfeuchte Niederschlag Windrichtung Wind
01.05.2006 00:00 4,9 C 66 % 0,0 l/m N 0,0 km/h (0 Bft)
01.05.2006 01:00 4,4 C 71 % 0,0 l/m N 0,0 km/h (0 Bft)
01.05.2006 02:00 3,9 C 77 % 0,0 l/m N 0,0 km/h (0 Bft)
01.05.2006 03:00 3,4 C 79 % 0,0 l/m N 0,0 km/h (0 Bft)
01.05.2006 04:00 2,9 C 82 % 0,0 l/m N 0,0 km/h (0 Bft)
01.05.2006 05:00 2,9 C 85 % 0,0 l/m N 0,0 km/h (0 Bft)
01.05.2006 06:00 2,6 C 87 % 0,0 l/m N 0,0 km/h (0 Bft)
01.05.2006 07:00 3,3 C 89 % 0,0 l/m S 1,7 km/h (1 Bft)
01.05.2006 08:00 5,8 C 79 % 0,0 l/m SO 6,0 km/h (2 Bft)
01.05.2006 09:00 8,9 C 54 % 0,0 l/m S 13,6 km/h (3 Bft)
01.05.2006 10:00 11,4 C 42 % 0,0 l/m SW 15,7 km/h (3 Bft)
01.05.2006 11:00 13,2 C 40 % 0,0 l/m S-SW 15,9 km/h (3 Bft)
01.05.2006 12:00 14,1 C 38 % 0,0 l/m S 13,6 km/h (3 Bft)
01.05.2006 13:00 15,1 C 36 % 0,0 l/m W-SW 12,6 km/h (3 Bft)
01.05.2006 14:00 15,4 C 34 % 0,0 l/m SW 15,2 km/h (3 Bft)
01.05.2006 15:00 15,0 C 34 % 0,0 l/m S-SW 13,9 km/h (3 Bft)
01.05.2006 16:00 14,6 C 35 % 0,0 l/m S 8,1 km/h (2 Bft)
01.05.2006 17:00 14,5 C 36 % 0,0 l/m S-SW 9,6 km/h (2 Bft)
01.05.2006 18:00 14,3 C 37 % 0,0 l/m S 4,1 km/h (1 Bft)
01.05.2006 19:00 13,7 C 38 % 0,0 l/m S-SO 2,8 km/h (1 Bft)
01.05.2006 20:00 12,4 C 44 % 0,0 l/m N 0,0 km/h (0 Bft)
01.05.2006 21:00 10,8 C 51 % 0,0 l/m N 0,0 km/h (0 Bft)
01.05.2006 22:00 9,7 C 53 % 0,0 l/m N 0,0 km/h (0 Bft)
01.05.2006 23:00 8,5 C 56 % 0,0 l/m N 0,0 km/h (0 Bft)
02.05.2006 00:00 7,7 C 62 % 0,0 l/m S 0,1 km/h (0 Bft)
02.05.2006 01:00 7,1 C 70 % 0,0 l/m S 1,2 km/h (1 Bft)
02.05.2006 02:00 7,3 C 74 % 0,0 l/m S-SW 2,1 km/h (1 Bft)
02.05.2006 03:00 6,8 C 78 % 0,0 l/m S 0,8 km/h (0 Bft)
02.05.2006 04:00 6,9 C 79 % 0,0 l/m W-SW 2,6 km/h (1 Bft)
02.05.2006 05:00 7,2 C 77 % 0,0 l/m SO 0,6 km/h (0 Bft)
02.05.2006 06:00 6,9 C 79 % 0,0 l/m N 0,0 km/h (0 Bft)
02.05.2006 07:00 7,9 C 77 % 0,0 l/m N 0,0 km/h (0 Bft)
02.05.2006 08:00 9,9 C 68 % 0,0 l/m N 0,3 km/h (0 Bft)
02.05.2006 09:00 12,8 C 48 % 0,0 l/m N-NO 6,9 km/h (2 Bft)
02.05.2006 10:00 15,4 C 40 % 0,0 l/m O-NO 7,0 km/h (2 Bft)
02.05.2006 11:00 17,2 C 38 % 0,0 l/m O 7,2 km/h (2 Bft)
02.05.2006 12:00 18,5 C 36 % 0,0 l/m S-SW 12,7 km/h (3 Bft)
02.05.2006 13:00 19,1 C 35 % 0,0 l/m W 12,2 km/h (2 Bft)
02.05.2006 14:00 19,4 C 35 % 0,0 l/m S-SW 12,1 km/h (2 Bft)
02.05.2006 15:00 20,9 C 31 % 0,0 l/m SO 14,5 km/h (3 Bft)
02.05.2006 16:00 20,5 C 29 % 0,0 l/m S-SW 13,3 km/h (3 Bft)
02.05.2006 17:00 20,7 C 27 % 0,0 l/m S 12,4 km/h (3 Bft)
02.05.2006 18:00 20,1 C 27 % 0,0 l/m W-SW 11,9 km/h (2 Bft)
02.05.2006 19:00 18,7 C 30 % 0,0 l/m SW 6,2 km/h (2 Bft)
02.05.2006 20:00 16,1 C 39 % 0,0 l/m N 0,0 km/h (0 Bft)
02.05.2006 21:00 13,6 C 48 % 0,0 l/m N 0,0 km/h (0 Bft)
02.05.2006 22:00 11,7 C 55 % 0,0 l/m N 0,0 km/h (0 Bft)
02.05.2006 23:00 10,4 C 59 % 0,0 l/m N 0,0 km/h (0 Bft)
03.05.2006 00:00 9,2 C 65 % 0,0 l/m N 0,0 km/h (0 Bft)
03.05.2006 01:00 8,5 C 69 % 0,0 l/m N 0,0 km/h (0 Bft)
03.05.2006 02:00 7,7 C 73 % 0,0 l/m N 0,0 km/h (0 Bft)
03.05.2006 03:00 7,0 C 77 % 0,0 l/m N 0,0 km/h (0 Bft)
03.05.2006 04:00 6,4 C 79 % 0,0 l/m N 0,0 km/h (0 Bft)
03.05.2006 05:00 5,9 C 81 % 0,0 l/m N 0,0 km/h (0 Bft)
03.05.2006 06:00 6,0 C 84 % 0,0 l/m N 0,0 km/h (0 Bft)
03.05.2006 07:00 7,5 C 83 % 0,0 l/m N 0,0 km/h (0 Bft)
03.05.2006 08:00 11,0 C 65 % 0,0 l/m N 0,0 km/h (0 Bft)
03.05.2006 09:00 14,4 C 50 % 0,0 l/m SO 2,6 km/h (1 Bft)
03.05.2006 10:00 17,9 C 41 % 0,0 l/m O-SO 5,6 km/h (1 Bft)
03.05.2006 11:00 20,1 C 37 % 0,0 l/m O-NO 5,4 km/h (1 Bft)
03.05.2006 12:00 22,0 C 34 % 0,0 l/m O-SO 10,4 km/h (2 Bft)
03.05.2006 13:00 23,2 C 29 % 0,0 l/m O-NO 14,0 km/h (3 Bft)
03.05.2006 14:00 24,0 C 27 % 0,0 l/m O-NO 13,9 km/h (3 Bft)
03.05.2006 15:00 23,7 C 26 % 0,0 l/m NO 14,0 km/h (3 Bft)
03.05.2006 16:00 23,6 C 26 % 0,0 l/m NO 17,3 km/h (3 Bft)
03.05.2006 17:00 23,3 C 26 % 0,0 l/m O-NO 15,8 km/h (3 Bft)
03.05.2006 18:00 22,9 C 27 % 0,0 l/m N-NO 16,1 km/h (3 Bft)
03.05.2006 19:00 21,3 C 28 % 0,0 l/m O 14,8 km/h (3 Bft)
03.05.2006 20:00 19,2 C 35 % 0,0 l/m N-NO 9,8 km/h (2 Bft)
03.05.2006 21:00 17,1 C 40 % 0,0 l/m N 5,9 km/h (2 Bft)
03.05.2006 22:00 15,2 C 45 % 0,0 l/m N 2,0 km/h (1 Bft)
03.05.2006 23:00 14,2 C 48 % 0,0 l/m N 8,2 km/h (2 Bft)
04.05.2006 00:00 13,5 C 51 % 0,0 l/m N 9,0 km/h (2 Bft)
04.05.2006 01:00 12,3 C 56 % 0,0 l/m NW 5,5 km/h (1 Bft)
04.05.2006 02:00 11,2 C 60 % 0,0 l/m N-NW 2,0 km/h (1 Bft)
04.05.2006 03:00 10,3 C 65 % 0,0 l/m W-NW 4,3 km/h (1 Bft)
04.05.2006 04:00 9,6 C 69 % 0,0 l/m NW 2,0 km/h (1 Bft)
04.05.2006 05:00 8,8 C 73 % 0,0 l/m NW 3,9 km/h (1 Bft)
04.05.2006 06:00 8,5 C 77 % 0,0 l/m NW 3,8 km/h (1 Bft)
04.05.2006 07:00 9,7 C 79 % 0,0 l/m N 6,0 km/h (2 Bft)
04.05.2006 08:00 12,1 C 73 % 0,0 l/m N 9,4 km/h (2 Bft)
04.05.2006 09:00 14,9 C 62 % 0,0 l/m N-NO 10,0 km/h (2 Bft)
04.05.2006 10:00 18,4 C 48 % 0,0 l/m N 10,7 km/h (2 Bft)
04.05.2006 11:00 20,5 C 42 % 0,0 l/m O-NO 10,6 km/h (2 Bft)
04.05.2006 12:00 22,1 C 37 % 0,0 l/m N-NO 11,1 km/h (2 Bft)
04.05.2006 13:00 23,3 C 36 % 0,0 l/m N-NO 13,6 km/h (3 Bft)
04.05.2006 14:00 23,5 C 34 % 0,0 l/m N-NO 16,2 km/h (3 Bft)
04.05.2006 15:00 24,2 C 31 % 0,0 l/m N-NO 13,9 km/h (3 Bft)
04.05.2006 16:00 24,2 C 30 % 0,0 l/m O 17,1 km/h (3 Bft)
04.05.2006 17:00 23,4 C 33 % 0,0 l/m O-NO 15,6 km/h (3 Bft)
04.05.2006 18:00 22,3 C 35 % 0,0 l/m O 16,4 km/h (3 Bft)
04.05.2006 19:00 20,6 C 37 % 0,0 l/m O 18,9 km/h (3 Bft)
04.05.2006 20:00 18,7 C 38 % 0,0 l/m NO 15,1 km/h (3 Bft)
04.05.2006 21:00 17,1 C 42 % 0,0 l/m N-NO 11,0 km/h (2 Bft)
04.05.2006 22:00 15,8 C 46 % 0,0 l/m N-NO 8,2 km/h (2 Bft)
04.05.2006 23:00 14,7 C 49 % 0,0 l/m N 9,3 km/h (2 Bft)
05.05.2006 00:00 13,4 C 52 % 0,0 l/m N 6,4 km/h (2 Bft)
05.05.2006 01:00 12,1 C 57 % 0,0 l/m NW 7,3 km/h (2 Bft)
05.05.2006 02:00 11,4 C 60 % 0,0 l/m NW 5,5 km/h (1 Bft)
05.05.2006 03:00 10,5 C 63 % 0,0 l/m NW 4,9 km/h (1 Bft)
05.05.2006 04:00 9,5 C 67 % 0,0 l/m NW 7,6 km/h (2 Bft)
05.05.2006 05:00 9,0 C 68 % 0,0 l/m N-NW 4,3 km/h (1 Bft)
05.05.2006 06:00 8,8 C 70 % 0,0 l/m N-NW 5,5 km/h (1 Bft)
05.05.2006 07:00 9,9 C 66 % 0,0 l/m N 4,6 km/h (1 Bft)
05.05.2006 08:00 11,5 C 59 % 0,0 l/m N 2,8 km/h (1 Bft)
05.05.2006 09:00 13,4 C 55 % 0,0 l/m W-NW 0,9 km/h (0 Bft)
05.05.2006 10:00 15,2 C 51 % 0,0 l/m W 4,2 km/h (1 Bft)
05.05.2006 11:00 17,3 C 46 % 0,0 l/m W-SW 7,5 km/h (2 Bft)
05.05.2006 12:00 19,2 C 44 % 0,0 l/m W 9,3 km/h (2 Bft)
05.05.2006 13:00 19,5 C 42 % 0,0 l/m S-SW 6,5 km/h (2 Bft)
05.05.2006 14:00 20,0 C 41 % 0,0 l/m W 6,4 km/h (2 Bft)
05.05.2006 15:00 20,5 C 44 % 0,0 l/m S-SW 14,4 km/h (3 Bft)
05.05.2006 16:00 20,1 C 48 % 0,0 l/m S-SW 15,7 km/h (3 Bft)
05.05.2006 17:00 19,2 C 51 % 0,0 l/m S-SW 12,5 km/h (3 Bft)
05.05.2006 18:00 19,0 C 52 % 0,0 l/m S-SW 8,2 km/h (2 Bft)
05.05.2006 19:00 18,4 C 55 % 0,0 l/m S-SW 5,2 km/h (1 Bft)
05.05.2006 20:00 16,8 C 61 % 0,0 l/m N 0,0 km/h (0 Bft)
05.05.2006 21:00 14,7 C 70 % 0,0 l/m W 0,3 km/h (0 Bft)
05.05.2006 22:00 13,4 C 75 % 0,0 l/m S 0,7 km/h (0 Bft)
05.05.2006 23:00 12,1 C 81 % 0,0 l/m N 0,0 km/h (0 Bft)
06.05.2006 00:00 11,2 C 87 % 0,0 l/m N 0,0 km/h (0 Bft)
06.05.2006 01:00 10,6 C 89 % 0,0 l/m N 0,0 km/h (0 Bft)
06.05.2006 02:00 10,1 C 92 % 0,0 l/m N 0,0 km/h (0 Bft)
06.05.2006 03:00 10,2 C 94 % 0,0 l/m N 0,0 km/h (0 Bft)
06.05.2006 04:00 10,0 C 96 % 0,0 l/m NW 1,7 km/h (1 Bft)
06.05.2006 05:00 10,0 C 97 % 0,0 l/m N 0,0 km/h (0 Bft)
06.05.2006 06:00 10,7 C 98 % 0,0 l/m N-NW 1,9 km/h (1 Bft)
06.05.2006 07:00 11,0 C 97 % 0,0 l/m W-NW 0,6 km/h (0 Bft)
06.05.2006 08:00 11,4 C 91 % 0,0 l/m N-NW 5,3 km/h (1 Bft)
06.05.2006 09:00 11,6 C 85 % 0,0 l/m N 5,1 km/h (1 Bft)
06.05.2006 10:00 13,1 C 80 % 0,0 l/m NO 3,0 km/h (1 Bft)
06.05.2006 11:00 16,1 C 61 % 0,0 l/m NO 6,9 km/h (2 Bft)
06.05.2006 12:00 17,9 C 51 % 0,0 l/m O 8,4 km/h (2 Bft)
06.05.2006 13:00 19,8 C 40 % 0,0 l/m N-NO 13,4 km/h (3 Bft)
06.05.2006 14:00 20,6 C 37 % 0,0 l/m NO 15,4 km/h (3 Bft)
06.05.2006 15:00 20,7 C 36 % 0,0 l/m N-NO 19,7 km/h (3 Bft)
06.05.2006 16:00 20,1 C 36 % 0,0 l/m N-NO 19,3 km/h (3 Bft)
06.05.2006 17:00 18,8 C 37 % 0,0 l/m O 19,7 km/h (3 Bft)
06.05.2006 18:00 17,9 C 39 % 0,0 l/m S-SW 14,0 km/h (3 Bft)
06.05.2006 19:00 16,4 C 44 % 0,0 l/m S-SW 3,9 km/h (1 Bft)
06.05.2006 20:00 14,6 C 51 % 0,0 l/m N 0,0 km/h (0 Bft)
06.05.2006 21:00 12,5 C 61 % 0,0 l/m N 0,0 km/h (0 Bft)
06.05.2006 22:00 11,3 C 64 % 0,0 l/m N 0,0 km/h (0 Bft)
06.05.2006 23:00 10,4 C 68 % 0,0 l/m W-NW 0,5 km/h (0 Bft)
07.05.2006 00:00 9,9 C 69 % 0,0 l/m N 3,7 km/h (1 Bft)
07.05.2006 01:00 9,2 C 69 % 0,0 l/m NW 3,7 km/h (1 Bft)
07.05.2006 02:00 8,8 C 68 % 0,0 l/m NW 3,8 km/h (1 Bft)
07.05.2006 03:00 7,8 C 68 % 0,0 l/m N 0,0 km/h (0 Bft)
07.05.2006 04:00 6,9 C 70 % 0,0 l/m W 0,1 km/h (0 Bft)
07.05.2006 05:00 6,3 C 71 % 0,0 l/m W-NW 3,0 km/h (1 Bft)
07.05.2006 06:00 5,8 C 73 % 0,0 l/m W 0,7 km/h (0 Bft)
07.05.2006 07:00 7,0 C 71 % 0,0 l/m N 2,2 km/h (1 Bft)
07.05.2006 08:00 9,6 C 64 % 0,0 l/m O 3,8 km/h (1 Bft)
07.05.2006 09:00 12,5 C 60 % 0,0 l/m O-SO 6,0 km/h (2 Bft)
07.05.2006 10:00 15,4 C 52 % 0,0 l/m O-NO 6,6 km/h (2 Bft)
07.05.2006 11:00 18,1 C 45 % 0,0 l/m O 10,4 km/h (2 Bft)
07.05.2006 12:00 19,4 C 39 % 0,0 l/m O 12,2 km/h (2 Bft)
07.05.2006 13:00 20,4 C 33 % 0,0 l/m O 15,1 km/h (3 Bft)
07.05.2006 14:00 21,2 C 29 % 0,0 l/m O 17,8 km/h (3 Bft)
07.05.2006 15:00 21,4 C 31 % 0,0 l/m O-NO 18,6 km/h (3 Bft)
07.05.2006 16:00 20,5 C 34 % 0,0 l/m NO 20,4 km/h (4 Bft)
07.05.2006 17:00 20,3 C 34 % 0,0 l/m O-NO 21,7 km/h (4 Bft)
07.05.2006 18:00 19,5 C 36 % 0,0 l/m O 22,0 km/h (4 Bft)
07.05.2006 19:00 17,9 C 37 % 0,0 l/m O-NO 19,4 km/h (3 Bft)
07.05.2006 20:00 16,2 C 38 % 0,0 l/m NO 16,1 km/h (3 Bft)
07.05.2006 21:00 14,8 C 40 % 0,0 l/m NO 12,5 km/h (3 Bft)
07.05.2006 22:00 13,6 C 45 % 0,0 l/m NO 11,0 km/h (2 Bft)
07.05.2006 23:00 12,6 C 48 % 0,0 l/m N-NO 11,9 km/h (2 Bft)
Min-Datum _ 01.05.06 03.05.06 - - 01.05.06
_ Min-Zeit 06:42 16:53 - - 00:00
Minimum _ 2,4 C 25 % - - 0,0 km/h (0 Bft)
Max-Datum _ 04.05.06 06.05.06 01.05.06 - 07.05.06
_ Max-Zeit 16:02 06:03 00:00 - 18:49
Maximum _ 24,7 C 98 % 0,0 l/m - 35,8 km/h
O (5 Bft)
Durchschnitt _ 14,0 C 55 % #0,0 l/m N-NO 7,0 km/h (2 Bft)

Durchschnitt Minimum Temp.13,3 C
Durchschnitt Maximum Temp.14,6 C